createdAt,value
2018-05-14T00:01:39.146Z,1.40
2018-05-14T00:04:11.855Z,1.67
2018-05-14T00:06:45.153Z,1.37
2018-05-14T00:09:17.735Z,1.80
2018-05-14T00:11:50.988Z,1.97
2018-05-14T00:14:23.662Z,2.20
2018-05-14T00:16:56.251Z,2.27
2018-05-14T00:19:28.834Z,1.90
2018-05-14T00:22:01.467Z,2.13
2018-05-14T00:24:33.926Z,2.80
2018-05-14T00:27:09.730Z,3.40
2018-05-14T00:29:44.938Z,3.27
2018-05-14T00:32:17.519Z,3.70
2018-05-14T00:34:50.951Z,3.40
2018-05-14T00:37:23.468Z,3.20
2018-05-14T00:39:55.854Z,3.60
2018-05-14T00:42:29.566Z,3.60
2018-05-14T00:45:02.347Z,3.27
2018-05-14T00:47:34.803Z,3.33
2018-05-14T00:50:07.463Z,3.50
2018-05-14T00:52:40.638Z,2.97
2018-05-14T00:55:16.198Z,3.30
2018-05-14T00:57:48.734Z,3.30
2018-05-14T01:00:21.236Z,4.23
2018-05-14T01:02:53.885Z,3.07
2018-05-14T01:05:26.399Z,3.20
2018-05-14T01:08:00.099Z,4.03
2018-05-14T01:10:32.830Z,3.40
2018-05-14T01:13:05.517Z,3.30
2018-05-14T01:15:38.231Z,3.33
2018-05-14T01:18:10.846Z,3.20
2018-05-14T01:20:43.530Z,3.67
2018-05-14T01:23:16.083Z,2.80
2018-05-14T01:25:48.690Z,3.90
2018-05-14T01:28:21.246Z,3.83
2018-05-14T01:30:54.627Z,3.43
2018-05-14T01:33:27.030Z,3.53
2018-05-14T01:36:00.331Z,3.63
2018-05-14T01:38:33.096Z,3.60
2018-05-14T01:41:05.598Z,3.20
2018-05-14T01:43:38.127Z,3.93
2018-05-14T01:46:10.644Z,3.20
2018-05-14T01:48:44.064Z,3.60
2018-05-14T01:51:16.768Z,4.20
2018-05-14T01:53:49.408Z,4.10
2018-05-14T01:56:21.972Z,3.47
2018-05-14T01:58:55.256Z,3.77
2018-05-14T02:01:28.418Z,3.70
2018-05-14T02:04:01.068Z,3.10
2018-05-14T02:06:33.775Z,3.50
2018-05-14T02:09:07.143Z,3.63
2018-05-14T02:11:43.111Z,3.30
2018-05-14T02:14:15.883Z,3.80
2018-05-14T02:16:48.333Z,3.80
2018-05-14T02:19:20.850Z,3.70
2018-05-14T02:21:55.512Z,3.60
2018-05-14T02:24:28.043Z,3.60
2018-05-14T02:27:00.498Z,4.63
2018-05-14T02:29:32.967Z,4.53
2018-05-14T02:32:09.206Z,4.20
2018-05-14T02:34:41.571Z,4.60
2018-05-14T02:37:14.703Z,4.20
2018-05-14T02:39:47.354Z,4.63
2018-05-14T02:42:19.854Z,4.67
2018-05-14T02:44:52.315Z,5.00
2018-05-14T02:47:29.355Z,5.13
2018-05-14T02:50:02.066Z,5.53
2018-05-14T02:52:34.846Z,5.00
2018-05-14T02:55:08.351Z,5.83
2018-05-14T02:57:41.947Z,5.50
2018-05-14T03:00:14.523Z,4.90
2018-05-14T03:02:47.014Z,5.00
2018-05-14T03:05:19.446Z,5.70
2018-05-14T03:07:52.019Z,4.70
2018-05-14T03:10:24.607Z,4.87
2018-05-14T03:12:57.126Z,5.40
2018-05-14T03:15:29.660Z,4.40
2018-05-14T03:18:02.154Z,5.17
2018-05-14T03:20:36.848Z,4.77
2018-05-14T03:23:09.979Z,5.10
2018-05-14T03:25:43.118Z,4.87
2018-05-14T03:28:26.279Z,5.53
2018-05-14T03:30:59.435Z,5.10
2018-05-14T03:33:32.043Z,4.90
2018-05-14T03:36:04.654Z,5.27
2018-05-14T03:38:37.646Z,4.83
2018-05-14T03:41:10.238Z,4.70
2018-05-14T03:43:42.693Z,4.87
2018-05-14T03:46:15.219Z,4.70
2018-05-14T03:48:49.889Z,4.70
2018-05-14T03:51:23.102Z,5.50
2018-05-14T03:53:55.604Z,4.43
2018-05-14T03:56:28.180Z,5.23
2018-05-14T03:59:12.876Z,5.13
2018-05-14T04:01:57.521Z,5.40
2018-05-14T04:04:42.451Z,5.90
2018-05-14T04:07:18.903Z,5.03
2018-05-14T04:09:52.346Z,5.60
2018-05-14T04:12:28.672Z,5.70
2018-05-14T04:15:01.393Z,5.50
2018-05-14T04:17:37.686Z,6.00
2018-05-14T04:20:22.336Z,6.00
2018-05-14T04:22:58.956Z,5.80
2018-05-14T04:25:31.683Z,6.37
2018-05-14T04:28:10.348Z,6.77
2018-05-14T04:30:42.847Z,6.60
2018-05-14T04:33:15.605Z,6.20
2018-05-14T04:35:59.854Z,7.10
2018-05-14T04:38:32.386Z,7.53
2018-05-14T04:41:15.208Z,7.43
2018-05-14T04:43:49.776Z,7.80
2018-05-14T04:46:36.444Z,8.03
2018-05-14T04:49:08.979Z,9.10
2018-05-14T04:51:42.849Z,9.33
2018-05-14T04:54:16.288Z,9.10
2018-05-14T04:56:54.861Z,9.77
2018-05-14T04:59:28.211Z,8.10
2018-05-14T05:02:08.106Z,8.07
2018-05-14T05:04:44.581Z,8.40
2018-05-14T05:07:18.406Z,8.43
2018-05-14T05:09:51.059Z,8.80
2018-05-14T05:12:25.003Z,9.70
2018-05-14T05:14:57.658Z,8.37
2018-05-14T05:17:42.363Z,8.50
2018-05-14T05:20:15.054Z,7.30
2018-05-14T05:22:47.568Z,8.40
2018-05-14T05:25:22.048Z,8.60
2018-05-14T05:27:55.919Z,8.00
2018-05-14T05:30:29.113Z,8.70
2018-05-14T05:33:03.673Z,9.10
2018-05-14T05:35:36.316Z,8.20
2018-05-14T05:38:09.012Z,8.70
2018-05-14T05:40:41.759Z,8.27
2018-05-14T05:43:21.854Z,8.53
2018-05-14T05:45:54.478Z,7.70
2018-05-14T05:48:29.663Z,8.10
2018-05-14T05:51:02.425Z,7.20
2018-05-14T05:53:35.839Z,7.37
2018-05-14T05:56:09.455Z,5.90
2018-05-14T05:58:43.142Z,7.23
2018-05-14T06:01:15.769Z,6.83
2018-05-14T06:03:49.511Z,6.50
2018-05-14T06:06:21.971Z,5.70
2018-05-14T06:08:54.554Z,6.03
2018-05-14T06:11:30.587Z,7.00
2018-05-14T06:14:03.751Z,6.80
2018-05-14T06:16:37.125Z,5.90
2018-05-14T06:19:10.581Z,7.40
2018-05-14T06:21:42.963Z,6.90
2018-05-14T06:24:16.251Z,7.07
2018-05-14T06:26:49.692Z,7.40
2018-05-14T06:29:22.851Z,7.20
2018-05-14T06:31:55.266Z,6.60
2018-05-14T06:34:27.803Z,6.40
2018-05-14T06:37:00.152Z,6.90
2018-05-14T06:39:33.854Z,6.37
2018-05-14T06:42:06.639Z,8.00
2018-05-14T06:44:39.988Z,7.63
2018-05-14T06:47:22.475Z,7.50
2018-05-14T06:49:55.842Z,7.57
2018-05-14T06:52:29.013Z,7.60
2018-05-14T06:55:10.492Z,7.37
2018-05-14T06:57:44.993Z,7.93
2018-05-14T07:00:23.510Z,8.20
2018-05-14T07:02:56.115Z,7.90
2018-05-14T07:05:28.751Z,8.90
2018-05-14T07:08:02.547Z,8.27
2018-05-14T07:10:35.252Z,8.37
2018-05-14T07:13:07.898Z,8.20
2018-05-14T07:15:40.578Z,9.37
2018-05-14T07:18:13.033Z,8.23
2018-05-14T07:20:46.415Z,8.80
2018-05-14T07:23:19.561Z,8.60
2018-05-14T07:25:52.262Z,8.03
2018-05-14T07:28:24.857Z,9.37
2018-05-14T07:30:57.335Z,8.30
2018-05-14T07:33:29.999Z,7.90
2018-05-14T07:36:02.779Z,8.90
2018-05-14T07:38:36.342Z,9.87
2018-05-14T07:41:09.690Z,9.17
2018-05-14T07:43:42.091Z,9.67
2018-05-14T07:46:15.790Z,9.47
2018-05-14T07:48:53.100Z,8.70
2018-05-14T07:51:25.712Z,8.90
2018-05-14T07:53:59.100Z,9.33
2018-05-14T07:56:31.620Z,9.07
2018-05-14T07:59:04.069Z,8.57
2018-05-14T08:01:38.486Z,8.63
2018-05-14T08:04:11.711Z,7.50
2018-05-14T08:06:44.397Z,6.83
2018-05-14T08:09:16.961Z,6.93
2018-05-14T08:11:49.433Z,8.10
2018-05-14T08:14:21.918Z,7.33
2018-05-14T08:16:54.328Z,7.37
2018-05-14T08:19:26.850Z,6.30
2018-05-14T08:21:59.227Z,6.97
2018-05-14T08:24:31.754Z,6.77
2018-05-14T08:27:05.070Z,6.53
2018-05-14T08:29:38.729Z,6.93
2018-05-14T08:32:11.334Z,6.90
2018-05-14T08:34:44.528Z,7.70
2018-05-14T08:37:17.004Z,7.60
2018-05-14T08:39:49.747Z,7.50
2018-05-14T08:42:22.226Z,7.50
2018-05-14T08:44:54.799Z,7.53
2018-05-14T08:47:27.962Z,7.60
2018-05-14T08:50:01.278Z,7.80
2018-05-14T08:52:33.619Z,6.47
2018-05-14T08:55:06.079Z,6.80
2018-05-14T08:57:38.783Z,7.90
2018-05-14T09:00:11.356Z,7.07
2018-05-14T09:02:44.714Z,6.43
2018-05-14T09:05:17.138Z,6.80
2018-05-14T09:07:50.554Z,7.93
2018-05-14T09:10:22.947Z,7.20
2018-05-14T09:12:56.308Z,7.77
2018-05-14T09:15:28.670Z,7.23
2018-05-14T09:18:01.191Z,6.83
2018-05-14T09:20:33.627Z,6.93
2018-05-14T09:23:06.915Z,7.27
2018-05-14T09:25:39.338Z,6.97
2018-05-14T09:28:12.783Z,8.40
2018-05-14T09:30:45.203Z,7.33
2018-05-14T09:33:17.762Z,7.90
2018-05-14T09:35:50.143Z,8.23
2018-05-14T09:38:22.634Z,6.73
2018-05-14T09:40:55.146Z,6.80
2018-05-14T09:43:27.782Z,7.03
2018-05-14T09:46:00.302Z,7.57
2018-05-14T09:48:32.818Z,8.90
2018-05-14T09:51:05.211Z,8.40
2018-05-14T09:53:37.667Z,7.33
2018-05-14T09:56:11.126Z,8.83
2018-05-14T09:58:43.499Z,7.53
2018-05-14T10:01:15.997Z,8.83
2018-05-14T10:03:49.099Z,7.07
2018-05-14T10:06:22.319Z,9.00
2018-05-14T10:08:54.847Z,9.17
2018-05-14T10:11:27.248Z,8.63
2018-05-14T10:14:00.483Z,8.87
2018-05-14T10:16:33.063Z,9.37
2018-05-14T10:19:07.722Z,9.40
2018-05-14T10:21:40.330Z,10.97
2018-05-14T10:24:12.744Z,9.87
2018-05-14T10:26:48.096Z,9.00
2018-05-14T10:29:21.210Z,10.53
2018-05-14T10:31:53.672Z,9.00
2018-05-14T10:34:26.364Z,9.50
2018-05-14T10:36:58.972Z,10.23
2018-05-14T10:39:34.872Z,8.70
2018-05-14T10:42:07.238Z,10.70
2018-05-14T10:44:39.650Z,12.10
2018-05-14T10:47:18.436Z,10.80
2018-05-14T10:49:50.836Z,9.77
2018-05-14T10:52:23.289Z,12.00
2018-05-14T10:54:55.703Z,10.97
2018-05-14T10:57:28.279Z,10.53
2018-05-14T11:00:00.869Z,10.20
2018-05-14T11:02:33.336Z,12.37
2018-05-14T11:05:05.955Z,12.70
2018-05-14T11:07:38.526Z,11.83
2018-05-14T11:10:11.351Z,11.93
2018-05-14T11:12:47.520Z,13.73
2018-05-14T11:15:20.254Z,11.40
2018-05-14T11:17:52.708Z,11.93
2018-05-14T11:20:25.249Z,11.40
2018-05-14T11:22:58.482Z,12.13
2018-05-14T11:25:30.985Z,13.80
2018-05-14T11:28:05.698Z,13.73
2018-05-14T11:30:38.346Z,14.80
2018-05-14T11:33:11.950Z,13.33
2018-05-14T11:35:44.667Z,13.63
2018-05-14T11:38:17.267Z,15.70
2018-05-14T11:40:49.791Z,14.20
2018-05-14T11:43:22.163Z,14.67
2018-05-14T11:45:54.819Z,13.70
2018-05-14T11:48:27.310Z,13.93
2018-05-14T11:50:59.922Z,12.97
2018-05-14T11:53:32.326Z,11.97
2018-05-14T11:56:06.055Z,13.20
2018-05-14T11:58:42.156Z,13.17
2018-05-14T12:01:14.761Z,12.90
2018-05-14T12:03:48.464Z,12.90
2018-05-14T12:06:21.006Z,12.70
2018-05-14T12:08:54.318Z,12.90
2018-05-14T12:11:26.789Z,12.03
2018-05-14T12:13:59.434Z,12.87
2018-05-14T12:16:39.251Z,14.40
2018-05-14T12:19:12.017Z,12.93
2018-05-14T12:21:48.686Z,13.07
2018-05-14T12:24:21.316Z,13.77
2018-05-14T12:26:53.737Z,13.00
2018-05-14T12:29:27.643Z,14.47
2018-05-14T12:32:00.308Z,15.60
2018-05-14T12:34:34.630Z,14.50
2018-05-14T12:37:07.040Z,14.60
2018-05-14T12:39:39.698Z,14.23
2018-05-14T12:42:12.463Z,15.27
2018-05-14T12:44:44.942Z,15.53
2018-05-14T12:47:17.406Z,15.10
2018-05-14T12:49:50.047Z,14.73
2018-05-14T12:52:22.684Z,14.30
2018-05-14T12:54:55.975Z,12.53
2018-05-14T12:57:29.139Z,13.20
2018-05-14T13:00:01.783Z,12.97
2018-05-14T13:02:35.219Z,12.27
2018-05-14T13:05:07.653Z,12.17
2018-05-14T13:07:43.774Z,12.20
2018-05-14T13:10:16.430Z,12.90
2018-05-14T13:12:49.100Z,12.30
2018-05-14T13:15:21.562Z,13.20
2018-05-14T13:17:54.159Z,12.33
2018-05-14T13:20:26.983Z,11.93
2018-05-14T13:22:59.684Z,12.43
2018-05-14T13:25:32.042Z,12.80
2018-05-14T13:28:07.523Z,11.50
2018-05-14T13:30:41.549Z,12.60
2018-05-14T13:33:15.099Z,11.40
2018-05-14T13:35:47.889Z,12.53
2018-05-14T13:38:20.367Z,13.20
2018-05-14T13:40:52.947Z,14.03
2018-05-14T13:43:25.631Z,12.57
2018-05-14T13:45:58.169Z,12.63
2018-05-14T13:48:30.895Z,12.70
2018-05-14T13:51:03.468Z,13.03
2018-05-14T13:53:36.087Z,14.20
2018-05-14T13:56:08.723Z,13.73
2018-05-14T13:58:47.082Z,13.00
2018-05-14T14:01:22.862Z,13.87
2018-05-14T14:03:55.304Z,14.17
2018-05-14T14:06:28.762Z,13.93
2018-05-14T14:09:01.224Z,13.37
2018-05-14T14:11:34.433Z,13.87
2018-05-14T14:14:06.989Z,13.17
2018-05-14T14:16:39.556Z,15.73
2018-05-14T14:19:12.298Z,14.83
2018-05-14T14:21:44.687Z,14.17
2018-05-14T14:24:18.139Z,15.20
2018-05-14T14:26:50.619Z,15.47
2018-05-14T14:29:24.363Z,15.90
2018-05-14T14:31:57.116Z,16.60
2018-05-14T14:34:29.672Z,16.47
2018-05-14T14:37:03.452Z,17.53
2018-05-14T14:39:36.075Z,19.90
2018-05-14T14:42:08.682Z,16.70
2018-05-14T14:44:41.408Z,17.33
2018-05-14T14:47:13.925Z,18.53
2018-05-14T14:49:49.709Z,17.70
2018-05-14T14:52:22.366Z,18.20
2018-05-14T14:54:55.075Z,17.10
2018-05-14T14:57:27.563Z,17.70
2018-05-14T15:00:00.080Z,20.30
2018-05-14T15:02:32.562Z,18.07
2018-05-14T15:05:09.864Z,18.03
2018-05-14T15:07:43.300Z,19.80
2018-05-14T15:10:16.027Z,17.53
2018-05-14T15:12:49.275Z,19.87
2018-05-14T15:15:22.732Z,21.03
2018-05-14T15:17:55.334Z,19.77
2018-05-14T15:20:27.914Z,18.13
2018-05-14T15:23:00.547Z,17.97
2018-05-14T15:25:33.228Z,18.63
2018-05-14T15:28:05.911Z,18.50
2018-05-14T15:30:38.455Z,19.63
2018-05-14T15:33:14.937Z,18.87
2018-05-14T15:35:47.989Z,20.30
2018-05-14T15:38:20.825Z,19.73
2018-05-14T15:40:53.334Z,17.60
2018-05-14T15:43:29.597Z,19.10
2018-05-14T15:46:02.335Z,19.37
2018-05-14T15:48:38.218Z,21.07
2018-05-14T15:51:10.848Z,21.03
2018-05-14T15:53:43.414Z,21.80
2018-05-14T15:56:16.177Z,20.90
2018-05-14T15:58:49.352Z,20.57
2018-05-14T16:01:22.039Z,20.37
2018-05-14T16:03:54.520Z,18.50
2018-05-14T16:06:27.186Z,21.00
2018-05-14T16:08:59.798Z,19.67
2018-05-14T16:11:32.434Z,20.67
2018-05-14T16:14:05.044Z,18.97
2018-05-14T16:16:41.937Z,19.00
2018-05-14T16:19:15.347Z,19.60
2018-05-14T16:21:48.755Z,20.20
2018-05-14T16:24:21.246Z,19.57
2018-05-14T16:26:54.779Z,19.73
2018-05-14T16:29:32.475Z,19.90
2018-05-14T16:32:11.189Z,20.40
2018-05-14T16:34:43.803Z,18.70
2018-05-14T16:37:16.451Z,19.90
2018-05-14T16:39:49.894Z,19.00
2018-05-14T16:42:22.483Z,20.47
2018-05-14T16:44:54.986Z,18.70
2018-05-14T16:47:27.526Z,19.20
2018-05-14T16:50:06.142Z,18.53
2018-05-14T16:52:38.775Z,19.40
2018-05-14T16:55:12.033Z,19.70
2018-05-14T16:57:44.932Z,17.00
2018-05-14T17:00:17.455Z,17.80
2018-05-14T17:02:50.087Z,18.00
2018-05-14T17:05:22.760Z,17.60
2018-05-14T17:07:55.498Z,17.30
2018-05-14T17:10:28.136Z,17.37
2018-05-14T17:13:01.359Z,17.27
2018-05-14T17:15:34.171Z,17.50
2018-05-14T17:18:06.868Z,17.20
2018-05-14T17:20:39.526Z,16.33
2018-05-14T17:23:12.094Z,17.20
2018-05-14T17:25:44.671Z,16.20
2018-05-14T17:28:17.327Z,16.43
2018-05-14T17:30:49.887Z,17.00
2018-05-14T17:33:22.687Z,16.20
2018-05-14T17:35:55.224Z,16.00
2018-05-14T17:38:27.691Z,16.53
2018-05-14T17:41:00.958Z,15.80
2018-05-14T17:43:36.098Z,18.13
2018-05-14T17:46:08.640Z,17.50
2018-05-14T17:48:41.237Z,17.37
2018-05-14T17:51:16.802Z,15.63
2018-05-14T17:53:49.415Z,17.87
2018-05-14T17:56:24.134Z,18.10
2018-05-14T17:58:56.721Z,16.40
2018-05-14T18:01:29.201Z,17.40
2018-05-14T18:04:01.818Z,16.17
2018-05-14T18:06:34.417Z,17.00
2018-05-14T18:09:07.804Z,16.20
2018-05-14T18:11:40.509Z,17.33
2018-05-14T18:14:12.993Z,16.20
2018-05-14T18:16:45.583Z,16.47
2018-05-14T18:19:18.221Z,18.57
2018-05-14T18:21:50.800Z,17.10
2018-05-14T18:24:23.327Z,17.77
2018-05-14T18:26:55.964Z,18.03
2018-05-14T18:29:32.989Z,17.70
2018-05-14T18:32:05.646Z,16.90
2018-05-14T18:34:39.186Z,18.30
2018-05-14T18:37:19.986Z,19.97
2018-05-14T18:39:53.545Z,18.77
2018-05-14T18:42:27.065Z,18.23
2018-05-14T18:45:02.834Z,19.50
2018-05-14T18:47:36.426Z,20.50
2018-05-14T18:50:10.084Z,20.60
2018-05-14T18:52:42.514Z,22.07
2018-05-14T18:55:15.114Z,17.97
2018-05-14T18:57:49.540Z,21.13
2018-05-14T19:00:24.075Z,20.00
2018-05-14T19:02:56.702Z,20.77
2018-05-14T19:05:30.203Z,20.90
2018-05-14T19:08:03.391Z,20.97
2018-05-14T19:10:42.117Z,22.73
2018-05-14T19:13:14.714Z,23.97
2018-05-14T19:15:54.909Z,22.33
2018-05-14T19:18:28.064Z,19.47
2018-05-14T19:21:01.697Z,20.20
2018-05-14T19:23:40.668Z,19.90
2018-05-14T19:26:13.801Z,18.63
2018-05-14T19:28:52.351Z,19.77
2018-05-14T19:31:24.819Z,19.93
2018-05-14T19:34:03.538Z,20.00
2018-05-14T19:36:35.943Z,20.77
2018-05-14T19:39:08.614Z,19.93
2018-05-14T19:41:41.438Z,20.17
2018-05-14T19:44:14.158Z,20.03
2018-05-14T19:46:47.403Z,19.97
2018-05-14T19:49:22.147Z,22.50
2018-05-14T19:51:54.825Z,20.73
2018-05-14T19:54:27.361Z,21.37
2018-05-14T19:57:00.838Z,22.37
2018-05-14T19:59:33.246Z,21.77
2018-05-14T20:02:09.291Z,22.80
2018-05-14T20:04:42.846Z,21.07
2018-05-14T20:07:15.339Z,20.10
2018-05-14T20:09:50.705Z,21.07
2018-05-14T20:12:23.126Z,20.73
2018-05-14T20:14:59.462Z,18.83
2018-05-14T20:17:34.018Z,19.00
2018-05-14T20:20:06.639Z,19.30
2018-05-14T20:22:39.093Z,19.37
2018-05-14T20:25:11.533Z,20.20
2018-05-14T20:27:44.083Z,21.10
2018-05-14T20:30:17.431Z,17.80
2018-05-14T20:32:55.715Z,20.70
2018-05-14T20:35:29.410Z,20.60
2018-05-14T20:38:05.186Z,20.17
2018-05-14T20:40:37.874Z,22.67
2018-05-14T20:43:11.243Z,20.77
2018-05-14T20:45:47.323Z,20.50
2018-05-14T20:48:20.015Z,19.87
2018-05-14T20:50:58.121Z,19.67
2018-05-14T20:53:31.393Z,19.73
2018-05-14T20:56:04.082Z,19.07
2018-05-14T20:58:37.606Z,20.33
2018-05-14T21:01:10.279Z,18.23
2018-05-14T21:03:42.878Z,19.60
2018-05-14T21:06:15.503Z,20.77
2018-05-14T21:08:48.115Z,18.77
2018-05-14T21:11:21.303Z,20.73
2018-05-14T21:13:53.695Z,20.87
2018-05-14T21:16:26.231Z,19.00
2018-05-14T21:19:00.949Z,21.40
2018-05-14T21:21:33.615Z,20.77
2018-05-14T21:24:06.226Z,20.80
2018-05-14T21:26:38.850Z,20.17
2018-05-14T21:29:15.415Z,21.93
2018-05-14T21:31:49.026Z,21.67
2018-05-14T21:34:21.513Z,22.13
2018-05-14T21:36:54.870Z,20.83
2018-05-14T21:39:27.433Z,19.87
2018-05-14T21:42:00.080Z,19.67
2018-05-14T21:44:32.619Z,18.50
2018-05-14T21:47:05.427Z,17.90
2018-05-14T21:49:39.271Z,19.37
2018-05-14T21:52:11.714Z,20.67
2018-05-14T21:54:44.471Z,19.70
2018-05-14T21:57:17.171Z,18.40
2018-05-14T21:59:50.652Z,20.00
2018-05-14T22:02:23.202Z,20.40
2018-05-14T22:04:55.846Z,19.47
2018-05-14T22:07:28.233Z,21.03
2018-05-14T22:10:00.997Z,20.20
2018-05-14T22:12:35.687Z,20.83
2018-05-14T22:15:08.869Z,22.17
2018-05-14T22:17:42.163Z,21.23
2018-05-14T22:20:15.365Z,22.03
2018-05-14T22:22:47.960Z,22.30
2018-05-14T22:25:20.573Z,22.40
2018-05-14T22:27:53.062Z,21.47
2018-05-14T22:30:26.768Z,21.73
2018-05-14T22:32:59.414Z,21.03
2018-05-14T22:35:31.986Z,21.83
2018-05-14T22:38:06.355Z,20.27
2018-05-14T22:40:38.900Z,22.27
2018-05-14T22:43:11.471Z,23.50
2018-05-14T22:45:43.897Z,22.97
2018-05-14T22:48:16.551Z,24.87
2018-05-14T22:50:49.967Z,25.10
2018-05-14T22:53:22.375Z,23.60
2018-05-14T22:55:58.232Z,21.87
2018-05-14T22:58:31.432Z,24.27
2018-05-14T23:01:04.726Z,24.30
2018-05-14T23:03:37.369Z,22.80
2018-05-14T23:06:09.919Z,23.33
2018-05-14T23:08:42.563Z,23.40
2018-05-14T23:11:15.115Z,26.80
2018-05-14T23:13:47.589Z,23.73
2018-05-14T23:16:20.772Z,24.70
2018-05-14T23:18:59.251Z,27.00
2018-05-14T23:21:31.864Z,25.60
2018-05-14T23:24:05.471Z,25.97
2018-05-14T23:26:38.873Z,24.80
2018-05-14T23:29:12.606Z,26.17
2018-05-14T23:31:45.202Z,26.13
2018-05-14T23:34:17.787Z,26.00
2018-05-14T23:36:54.568Z,29.60
2018-05-14T23:39:27.350Z,23.30
2018-05-14T23:41:59.948Z,24.50
2018-05-14T23:44:32.576Z,25.30
2018-05-14T23:47:05.902Z,25.03
2018-05-14T23:49:38.585Z,22.90
2018-05-14T23:52:11.174Z,24.57
2018-05-14T23:54:43.899Z,23.13
2018-05-14T23:57:16.388Z,25.90
2018-05-14T23:59:48.814Z,26.73
